Simmons Army Air Field
KFBG : now visible

Aeroporto :











RITROVATECI SU...

 
LOGIN :

Iscrizione | Disclaimer

   EN    FR    IT 

 









Sommario :    VFR   VFR Marginale   IFR   IFR Intensivo   IFR Molto Intensivo
Visibilità : 
Base nubi : 
>= 8 km
>= 3000ft
5 / 8 km
1000 / 3000 ft
1500m / 5 km
500 / 1000 ft
800 / 1500m
200 / 500 ft
< 800m
< 200 ft
Simboli :   Temporali  Nebbia  Neve Forte  Precipitazioni Forti  Vento > 20 kt






- Altitudine del aeroporto : 244 ft


KFBG - Simmons Army Air Field

ULTIMO METAR :
  • 182056Z AUTO 18006KT 10SM SCT180 12/04 A3021 RMK AO2 SLP234 T01160043 57044 $

METARs OBSOLETI :
  • 182020Z AUTO 16007G16KT 10SM SCT075 BKN100 11/03 A3021 RMK AO2 PRESFR SLP234 $
  • 182013Z AUTO 17009KT 10SM BKN075 11/02 A3023 RMK AO2 PRESFR SLP241 $
  • 181956Z AUTO 17012KT 10SM FEW080 11/02 A3025 RMK AO2 SLP248 T01080019 $
  • 181942Z AUTO 18009KT 10SM FEW080 11/02 A3026 RMK AO2 SLP251 $
  • 181905Z AUTO 17007KT 10SM FEW090 10/00 A3028 RMK AO2 PRESFR SLP258 $
  • 181856Z AUTO 17009KT 10SM FEW045 SCT090 10/00 A3030 RMK AO2 SLP264 T01041001 $
  • 181840Z AUTO 15007KT 10SM SCT045 SCT095 10/M01 A3030 RMK AO2 SLP264 $
  • 181812Z AUTO 16006KT 10SM FEW020 SCT190 09/M03 A3032 RMK AO2 PRESFR SLP271 $

TAF TAF KFBG
Valido dal 18 a 18 ore il 20 a 00 ore UTC


181800Z 1818/1924 16009KT 9999 BKN030 BKN150 QNH3037INS
BECMG 1819/1820 12012KT 9999 VCSH BKN020 OVC100 WS020/20035KT QNH3035INS
BECMG 1821/1822 20015G30KT 6000 -SHRA SCT007 BKN015 OVC040 WS020/19040KT QNH2987INS
TEMPO 1903/1911 21015G35KT 4800 SHRA OVC007
BECMG 1911/1912 27015G25KT 9999 NSW BKN020 OVC040 QNH2989INS
BECMG 1916/1917 32010G20KT 9999 BKN040 BKN100 QNH2991INS TX14/1820Z TN08/1913Z



MetMap, La meteo Aeronautica in un colpo d'occhio ! - Copyright ORBIFLY Dicembre 2007 - Disclaimer

ORBIFLY MET'MAP TEAM :

Programmazione e sviluppo : Alexandra Zaïnal
Concezione : Baudouin d'Aumeries
Aiuto per la programmazione : Marc-Olivier Méhu
Supporto tecnico e logistico : Manuel Goepfert
Aiuto per la traduzione : Arnaldo La Scala

Contatto : metmap@orbifly.com




FONTI E CREDITI :

   NOAA       Earth
Advisory